Leusden, Netherlands
Current Conditions -  °F | °C
As of 8:55 PM on Monday 24 Nov 2014 (Local Time) from EHDL Reporting Station
Broken Clouds Broken Clouds  
Wind Chill: 39°   Ceiling: 4000
Heat Index: 39°   Visibility: 6mi
Dew Point: 39°   Wind: 2mph
Humidity: 100%   Direction: 140°SE
Pressure: 30.33"   Gusts: NA
Location:  52.13°N, 5.43°E
Report Text: EHDL 241955Z AUTO 14002KT 9999 BKN040 BKN095 04/04 Q1027 BLU
Loading
Personal Weather Stations






























Interactive Weather Map New forecast layout! Learn more

10-Day Weather Forecast

Advertisements
Track Severe Weather on mobile